createdAt,value
2023-07-25T00:03:51.256Z,0.90
2023-07-25T00:08:59.388Z,1.10
2023-07-25T00:14:07.351Z,0.70
2023-07-25T00:19:15.121Z,0.70
2023-07-25T00:24:22.926Z,0.60
2023-07-25T00:29:30.911Z,0.60
2023-07-25T00:34:38.558Z,0.60
2023-07-25T00:39:46.638Z,0.70
2023-07-25T00:44:54.612Z,0.50
2023-07-25T00:50:02.634Z,0.60
2023-07-25T00:55:12.143Z,0.80
2023-07-25T01:00:19.960Z,0.70
2023-07-25T01:05:31.015Z,0.70
2023-07-25T01:10:39.760Z,0.70
2023-07-25T01:15:47.944Z,0.70
2023-07-25T01:20:55.961Z,0.70
2023-07-25T01:26:03.995Z,0.70
2023-07-25T01:31:11.697Z,0.40
2023-07-25T01:36:19.393Z,0.50
2023-07-25T01:41:27.351Z,0.70
2023-07-25T01:46:35.470Z,1.00
2023-07-25T01:51:43.517Z,0.60
2023-07-25T01:56:51.441Z,0.80
2023-07-25T02:01:59.461Z,0.80
2023-07-25T02:07:08.369Z,0.80
2023-07-25T02:12:16.051Z,0.80
2023-07-25T02:17:23.741Z,0.70
2023-07-25T02:22:31.687Z,1.00
2023-07-25T02:27:39.355Z,0.70
2023-07-25T02:32:47.107Z,1.00
2023-07-25T02:37:55.127Z,0.90
2023-07-25T02:43:04.108Z,0.60
2023-07-25T02:48:11.889Z,0.80
2023-07-25T02:53:19.681Z,1.20
2023-07-25T02:58:27.432Z,0.80
2023-07-25T03:03:35.132Z,1.00
2023-07-25T03:08:42.813Z,1.00
2023-07-25T03:13:50.523Z,0.90
2023-07-25T03:18:58.194Z,1.30
2023-07-25T03:24:06.928Z,1.40
2023-07-25T03:29:14.648Z,1.20
2023-07-25T03:34:22.357Z,1.10
2023-07-25T03:39:30.036Z,1.60
2023-07-25T03:44:37.746Z,1.20
2023-07-25T03:49:47.118Z,1.60
2023-07-25T03:54:54.812Z,1.80
2023-07-25T04:00:02.941Z,1.80
2023-07-25T04:05:11.571Z,1.50
2023-07-25T04:10:19.397Z,1.90
2023-07-25T04:15:27.224Z,1.80
2023-07-25T04:20:34.927Z,1.60
2023-07-25T04:25:42.702Z,2.20
2023-07-25T04:30:50.502Z,2.10
2023-07-25T04:35:58.291Z,2.60
2023-07-25T04:41:06.117Z,2.50
2023-07-25T04:46:13.800Z,2.50
2023-07-25T04:51:21.473Z,2.60
2023-07-25T04:56:29.177Z,2.10
2023-07-25T05:01:37.034Z,2.30
2023-07-25T05:06:44.767Z,2.40
2023-07-25T05:11:53.130Z,2.60
2023-07-25T05:17:00.791Z,2.10
2023-07-25T05:22:08.818Z,2.30
2023-07-25T05:27:16.504Z,1.90
2023-07-25T05:32:25.505Z,1.90
2023-07-25T05:37:39.163Z,2.30
2023-07-25T05:42:46.926Z,2.30
2023-07-25T05:47:54.706Z,2.00
2023-07-25T05:53:02.387Z,1.90
2023-07-25T05:58:10.099Z,2.00
2023-07-25T06:03:18.620Z,2.10
2023-07-25T06:08:26.427Z,1.70
2023-07-25T06:13:35.045Z,1.60
2023-07-25T06:18:42.835Z,1.30
2023-07-25T06:23:50.657Z,1.80
2023-07-25T06:28:58.302Z,1.80
2023-07-25T06:34:06.066Z,1.50
2023-07-25T06:39:13.816Z,1.70
2023-07-25T06:44:21.533Z,1.80
2023-07-25T06:49:29.256Z,1.70
2023-07-25T06:54:36.982Z,2.00
2023-07-25T06:59:44.655Z,1.90
2023-07-25T07:04:52.974Z,1.60
2023-07-25T07:10:00.678Z,1.60
2023-07-25T07:15:10.202Z,1.50
2023-07-25T07:20:18.261Z,1.80
2023-07-25T07:25:26.924Z,1.90
2023-07-25T07:30:34.670Z,1.70
2023-07-25T07:35:42.404Z,1.60
2023-07-25T07:40:50.575Z,1.90
2023-07-25T07:51:27.012Z,1.80
2023-07-25T07:56:35.315Z,1.70
2023-07-25T08:01:51.858Z,1.80
2023-07-25T08:06:59.692Z,1.90
2023-07-25T08:12:09.125Z,1.70
2023-07-25T08:17:17.751Z,1.90
2023-07-25T08:22:25.471Z,1.70
2023-07-25T08:27:33.183Z,2.00
2023-07-25T08:32:40.881Z,1.60
2023-07-25T08:37:48.616Z,1.50
2023-07-25T08:43:04.168Z,1.40
2023-07-25T08:48:15.655Z,1.80
2023-07-25T08:53:25.453Z,1.60
2023-07-25T08:58:33.930Z,1.60
2023-07-25T09:03:43.865Z,1.40
2023-07-25T09:08:51.688Z,1.50
2023-07-25T09:13:59.395Z,1.50
2023-07-25T09:19:07.553Z,1.60
2023-07-25T09:24:15.345Z,1.40
2023-07-25T09:29:28.961Z,1.60
2023-07-25T09:34:38.643Z,1.70
2023-07-25T09:39:47.644Z,1.40
2023-07-25T09:44:58.828Z,1.50
2023-07-25T09:50:08.549Z,1.40
2023-07-25T09:55:16.232Z,1.40
2023-07-25T10:00:24.624Z,1.70
2023-07-25T10:05:32.418Z,1.50
2023-07-25T10:10:41.757Z,1.60
2023-07-25T10:15:50.492Z,1.20
2023-07-25T10:20:58.628Z,1.00
2023-07-25T10:26:18.434Z,1.20
2023-07-25T10:31:35.068Z,1.30
2023-07-25T10:36:43.936Z,1.30
2023-07-25T10:41:57.062Z,1.40
2023-07-25T10:47:24.929Z,1.20
2023-07-25T10:52:46.361Z,1.30
2023-07-25T10:58:10.912Z,1.50
2023-07-25T11:03:38.558Z,1.20
2023-07-25T11:08:46.260Z,1.20
2023-07-25T11:13:55.203Z,1.50
2023-07-25T11:19:03.859Z,1.70
2023-07-25T11:24:13.594Z,1.40
2023-07-25T11:29:21.425Z,1.60
2023-07-25T11:34:29.254Z,1.60
2023-07-25T11:39:37.117Z,1.60
2023-07-25T11:44:46.879Z,1.40
2023-07-25T11:50:10.151Z,1.20
2023-07-25T11:56:01.729Z,0.90
2023-07-25T12:01:13.976Z,1.60
2023-07-25T12:06:32.649Z,1.20
2023-07-25T12:11:48.313Z,1.50
2023-07-25T12:16:57.097Z,1.40
2023-07-25T12:22:10.167Z,1.40
2023-07-25T12:27:22.411Z,1.10
2023-07-25T12:32:31.189Z,1.20
2023-07-25T12:37:40.070Z,1.20
2023-07-25T12:42:48.613Z,1.40
2023-07-25T12:47:57.066Z,1.10
2023-07-25T12:53:05.745Z,0.90
2023-07-25T12:58:14.444Z,1.20
2023-07-25T13:03:27.376Z,1.00
2023-07-25T13:08:36.237Z,0.90
2023-07-25T13:13:45.206Z,0.70
2023-07-25T13:18:53.941Z,1.00
2023-07-25T13:24:02.419Z,1.60
2023-07-25T13:29:10.877Z,1.00
2023-07-25T13:34:19.643Z,1.40
2023-07-25T13:39:28.727Z,2.00
2023-07-25T13:44:37.232Z,0.90
2023-07-25T13:49:46.226Z,0.70
2023-07-25T13:54:55.068Z,0.90
2023-07-25T14:00:05.008Z,1.00
2023-07-25T14:05:14.608Z,0.70
2023-07-25T14:10:23.293Z,0.70
2023-07-25T14:15:32.829Z,0.90
2023-07-25T14:20:41.716Z,0.60
2023-07-25T14:25:50.423Z,0.60
2023-07-25T14:30:59.234Z,0.80
2023-07-25T14:36:08.373Z,0.70
2023-07-25T14:41:17.832Z,0.90
2023-07-25T14:46:26.325Z,0.70
2023-07-25T14:51:36.423Z,1.20
2023-07-25T14:56:45.459Z,1.10
2023-07-25T15:01:54.278Z,1.10
2023-07-25T15:07:02.754Z,0.90
2023-07-25T15:12:11.681Z,0.80
2023-07-25T15:17:23.779Z,0.80
2023-07-25T15:22:33.012Z,0.80
2023-07-25T15:27:41.747Z,0.80
2023-07-25T15:32:51.414Z,1.00
2023-07-25T15:37:59.960Z,0.70
2023-07-25T15:43:10.932Z,1.00
2023-07-25T15:48:20.095Z,1.30
2023-07-25T15:53:28.863Z,1.00
2023-07-25T15:58:37.384Z,0.90
2023-07-25T16:03:48.397Z,0.70
2023-07-25T16:08:58.068Z,0.80
2023-07-25T16:14:07.238Z,0.70
2023-07-25T16:19:17.222Z,0.70
2023-07-25T16:24:26.825Z,0.70
2023-07-25T16:29:35.372Z,0.80
2023-07-25T16:34:44.259Z,1.00
2023-07-25T16:39:53.189Z,1.00
2023-07-25T16:45:02.897Z,0.70
2023-07-25T16:50:13.074Z,0.80
2023-07-25T16:55:22.029Z,0.70
2023-07-25T17:00:31.143Z,0.70
2023-07-25T17:05:39.633Z,1.00
2023-07-25T17:10:49.446Z,0.90
2023-07-25T17:15:58.459Z,0.90
2023-07-25T17:21:07.507Z,1.10
2023-07-25T17:26:15.983Z,1.00
2023-07-25T17:31:24.515Z,0.90
2023-07-25T17:36:33.136Z,1.00
2023-07-25T17:41:42.184Z,0.90
2023-07-25T17:46:51.413Z,1.10
2023-07-25T17:52:00.337Z,2.90
2023-07-25T17:57:09.171Z,1.20
2023-07-25T18:02:17.650Z,0.90
2023-07-25T18:07:27.126Z,1.00
2023-07-25T18:12:35.636Z,0.70
2023-07-25T18:17:44.168Z,0.90
2023-07-25T18:22:52.729Z,0.60
2023-07-25T18:28:02.079Z,0.80
2023-07-25T18:33:14.202Z,1.00
2023-07-25T18:38:24.728Z,0.60
2023-07-25T18:43:33.899Z,1.00
2023-07-25T18:48:42.737Z,0.80
2023-07-25T18:53:51.688Z,1.00
2023-07-25T18:59:00.592Z,1.10
2023-07-25T19:04:11.282Z,1.00
2023-07-25T19:09:21.654Z,1.20
2023-07-25T19:14:31.079Z,1.10
2023-07-25T19:19:41.465Z,1.00
2023-07-25T19:24:50.228Z,1.00
2023-07-25T19:29:59.153Z,0.90
2023-07-25T19:35:10.470Z,1.10
2023-07-25T19:40:20.072Z,0.90
2023-07-25T19:45:28.475Z,1.00
2023-07-25T19:50:36.553Z,1.20
2023-07-25T19:55:45.952Z,1.40
2023-07-25T20:00:54.499Z,1.30
2023-07-25T20:06:03.362Z,1.40
2023-07-25T20:11:11.775Z,1.20
2023-07-25T20:16:20.236Z,1.20
2023-07-25T20:21:29.090Z,1.30
2023-07-25T20:26:39.147Z,1.30
2023-07-25T20:31:49.903Z,1.10
2023-07-25T20:36:58.325Z,1.20
2023-07-25T20:42:07.283Z,1.20
2023-07-25T20:47:15.767Z,1.10
2023-07-25T20:52:24.284Z,1.30
2023-07-25T20:57:33.122Z,1.30
2023-07-25T21:02:42.093Z,1.50
2023-07-25T21:07:50.878Z,1.30
2023-07-25T21:12:59.635Z,1.30
2023-07-25T21:18:13.753Z,1.40
2023-07-25T21:23:25.612Z,1.50
2023-07-25T21:28:34.520Z,1.60
2023-07-25T21:33:43.021Z,1.60
2023-07-25T21:38:52.614Z,1.70
2023-07-25T21:44:02.380Z,1.60
2023-07-25T21:49:10.874Z,1.90
2023-07-25T21:54:19.982Z,1.60
2023-07-25T21:59:28.556Z,1.70
2023-07-25T22:04:37.095Z,1.90
2023-07-25T22:09:45.969Z,2.00
2023-07-25T22:14:54.509Z,2.30
2023-07-25T22:20:03.229Z,2.00
2023-07-25T22:25:12.070Z,2.20
2023-07-25T22:30:20.891Z,2.20
2023-07-25T22:35:29.444Z,1.90
2023-07-25T22:40:37.916Z,2.10
2023-07-25T22:45:46.574Z,2.00
2023-07-25T22:50:55.937Z,2.00
2023-07-25T22:56:05.825Z,2.00
2023-07-25T23:01:15.231Z,1.90
2023-07-25T23:06:23.718Z,2.10
2023-07-25T23:11:33.005Z,2.40
2023-07-25T23:16:41.496Z,2.30
2023-07-25T23:21:50.308Z,2.40
2023-07-25T23:26:58.989Z,2.60
2023-07-25T23:32:09.223Z,2.70
2023-07-25T23:37:17.869Z,2.20
2023-07-25T23:42:26.360Z,2.60
2023-07-25T23:47:34.853Z,2.50
2023-07-25T23:52:43.565Z,2.00
2023-07-25T23:57:52.041Z,2.50
